sensor_id;sensor_type;location;lat;lon;timestamp;P1;durP1;ratioP1;P2;durP2;ratioP2
29002;SDS011;16102;57.138;-2.118;2023-02-13T00:01:00;0.88;;;0.52;;
29002;SDS011;16102;57.138;-2.118;2023-02-13T00:03:27;1.02;;;0.52;;
29002;SDS011;16102;57.138;-2.118;2023-02-13T00:05:54;0.52;;;0.43;;
29002;SDS011;16102;57.138;-2.118;2023-02-13T00:08:24;2.30;;;0.88;;
29002;SDS011;16102;57.138;-2.118;2023-02-13T00:10:51;3.88;;;1.20;;
29002;SDS011;16102;57.138;-2.118;2023-02-13T00:13:24;2.22;;;0.80;;
29002;SDS011;16102;57.138;-2.118;2023-02-13T00:15:55;2.97;;;0.88;;
29002;SDS011;16102;57.138;-2.118;2023-02-13T00:18:26;2.80;;;0.73;;
29002;SDS011;16102;57.138;-2.118;2023-02-13T00:20:58;3.30;;;1.20;;
29002;SDS011;16102;57.138;-2.118;2023-02-13T00:23:32;1.35;;;0.52;;
29002;SDS011;16102;57.138;-2.118;2023-02-13T00:26:09;1.75;;;0.50;;
29002;SDS011;16102;57.138;-2.118;2023-02-13T00:28:37;3.78;;;1.08;;
29002;SDS011;16102;57.138;-2.118;2023-02-13T00:31:07;1.85;;;1.00;;
29002;SDS011;16102;57.138;-2.118;2023-02-13T00:33:35;0.85;;;0.60;;
29002;SDS011;16102;57.138;-2.118;2023-02-13T00:36:06;3.63;;;0.82;;
29002;SDS011;16102;57.138;-2.118;2023-02-13T00:38:42;1.20;;;0.52;;
29002;SDS011;16102;57.138;-2.118;2023-02-13T00:41:10;3.65;;;0.77;;
29002;SDS011;16102;57.138;-2.118;2023-02-13T00:43:37;1.90;;;1.02;;
29002;SDS011;16102;57.138;-2.118;2023-02-13T00:46:04;1.23;;;0.60;;
29002;SDS011;16102;57.138;-2.118;2023-02-13T00:48:32;3.40;;;0.50;;
29002;SDS011;16102;57.138;-2.118;2023-02-13T00:51:01;1.83;;;0.50;;
29002;SDS011;16102;57.138;-2.118;2023-02-13T00:53:28;1.27;;;0.65;;
29002;SDS011;16102;57.138;-2.118;2023-02-13T00:55:55;0.98;;;0.50;;
29002;SDS011;16102;57.138;-2.118;2023-02-13T00:58:22;2.22;;;0.60;;
29002;SDS011;16102;57.138;-2.118;2023-02-13T01:00:50;1.17;;;0.70;;
29002;SDS011;16102;57.138;-2.118;2023-02-13T01:03:19;5.28;;;1.13;;
29002;SDS011;16102;57.138;-2.118;2023-02-13T01:05:47;1.33;;;0.70;;
29002;SDS011;16102;57.138;-2.118;2023-02-13T01:08:18;6.38;;;1.45;;
29002;SDS011;16102;57.138;-2.118;2023-02-13T01:10:45;1.15;;;0.68;;
29002;SDS011;16102;57.138;-2.118;2023-02-13T01:13:14;3.13;;;1.05;;
29002;SDS011;16102;57.138;-2.118;2023-02-13T01:15:44;2.08;;;0.77;;
29002;SDS011;16102;57.138;-2.118;2023-02-13T01:18:13;3.15;;;0.80;;
29002;SDS011;16102;57.138;-2.118;2023-02-13T01:20:41;0.82;;;0.73;;
29002;SDS011;16102;57.138;-2.118;2023-02-13T01:23:11;2.67;;;0.70;;
29002;SDS011;16102;57.138;-2.118;2023-02-13T01:25:39;2.25;;;0.90;;
29002;SDS011;16102;57.138;-2.118;2023-02-13T01:28:07;0.95;;;0.75;;
29002;SDS011;16102;57.138;-2.118;2023-02-13T01:30:35;3.40;;;1.02;;
29002;SDS011;16102;57.138;-2.118;2023-02-13T01:33:02;2.78;;;1.10;;
29002;SDS011;16102;57.138;-2.118;2023-02-13T01:35:29;2.60;;;0.70;;
29002;SDS011;16102;57.138;-2.118;2023-02-13T01:37:56;0.75;;;0.60;;
29002;SDS011;16102;57.138;-2.118;2023-02-13T01:40:23;3.10;;;0.77;;
29002;SDS011;16102;57.138;-2.118;2023-02-13T01:42:50;2.25;;;0.77;;
29002;SDS011;16102;57.138;-2.118;2023-02-13T01:45:19;1.20;;;0.77;;
29002;SDS011;16102;57.138;-2.118;2023-02-13T01:53:44;2.28;;;0.80;;
29002;SDS011;16102;57.138;-2.118;2023-02-13T01:56:24;2.08;;;1.25;;
29002;SDS011;16102;57.138;-2.118;2023-02-13T01:58:55;4.03;;;1.20;;
29002;SDS011;16102;57.138;-2.118;2023-02-13T02:01:26;5.15;;;1.70;;
29002;SDS011;16102;57.138;-2.118;2023-02-13T02:03:58;2.00;;;1.10;;
29002;SDS011;16102;57.138;-2.118;2023-02-13T02:06:33;2.83;;;1.00;;
29002;SDS011;16102;57.138;-2.118;2023-02-13T02:09:07;3.30;;;1.40;;
29002;SDS011;16102;57.138;-2.118;2023-02-13T02:11:45;2.33;;;1.30;;
29002;SDS011;16102;57.138;-2.118;2023-02-13T02:14:20;2.40;;;1.10;;
29002;SDS011;16102;57.138;-2.118;2023-02-13T02:16:47;2.25;;;1.00;;
29002;SDS011;16102;57.138;-2.118;2023-02-13T02:19:35;1.52;;;1.02;;
29002;SDS011;16102;57.138;-2.118;2023-02-13T02:39:58;4.03;;;1.08;;
29002;SDS011;16102;57.138;-2.118;2023-02-13T02:50:18;3.92;;;1.50;;
29002;SDS011;16102;57.138;-2.118;2023-02-13T02:55:47;1.60;;;1.20;;
29002;SDS011;16102;57.138;-2.118;2023-02-13T02:58:42;5.90;;;2.33;;
29002;SDS011;16102;57.138;-2.118;2023-02-13T03:01:36;1.63;;;0.90;;
29002;SDS011;16102;57.138;-2.118;2023-02-13T03:07:23;1.98;;;0.98;;
29002;SDS011;16102;57.138;-2.118;2023-02-13T03:09:51;1.08;;;0.82;;
29002;SDS011;16102;57.138;-2.118;2023-02-13T03:15:46;1.70;;;0.82;;
29002;SDS011;16102;57.138;-2.118;2023-02-13T03:18:40;5.25;;;1.83;;
29002;SDS011;16102;57.138;-2.118;2023-02-13T03:21:49;4.13;;;1.63;;
29002;SDS011;16102;57.138;-2.118;2023-02-13T03:25:01;3.88;;;1.52;;
29002;SDS011;16102;57.138;-2.118;2023-02-13T03:37:00;2.10;;;1.17;;
29002;SDS011;16102;57.138;-2.118;2023-02-13T03:39:48;2.22;;;1.25;;
29002;SDS011;16102;57.138;-2.118;2023-02-13T03:42:32;1.40;;;1.00;;
29002;SDS011;16102;57.138;-2.118;2023-02-13T03:45:05;1.70;;;1.15;;
29002;SDS011;16102;57.138;-2.118;2023-02-13T03:48:26;2.22;;;0.70;;
29002;SDS011;16102;57.138;-2.118;2023-02-13T03:51:35;1.92;;;0.60;;
29002;SDS011;16102;57.138;-2.118;2023-02-13T03:54:11;4.00;;;1.10;;
29002;SDS011;16102;57.138;-2.118;2023-02-13T03:57:19;4.75;;;1.05;;
29002;SDS011;16102;57.138;-2.118;2023-02-13T04:00:08;0.80;;;0.60;;
29002;SDS011;16102;57.138;-2.118;2023-02-13T04:02:44;0.70;;;0.68;;
29002;SDS011;16102;57.138;-2.118;2023-02-13T04:05:21;1.45;;;0.95;;
29002;SDS011;16102;57.138;-2.118;2023-02-13T04:07:50;2.05;;;1.00;;
29002;SDS011;16102;57.138;-2.118;2023-02-13T04:10:18;0.70;;;0.70;;
29002;SDS011;16102;57.138;-2.118;2023-02-13T04:18:08;0.82;;;0.60;;
29002;SDS011;16102;57.138;-2.118;2023-02-13T04:20:39;7.38;;;1.10;;
29002;SDS011;16102;57.138;-2.118;2023-02-13T04:23:07;1.50;;;0.90;;
29002;SDS011;16102;57.138;-2.118;2023-02-13T04:25:36;1.70;;;0.80;;
29002;SDS011;16102;57.138;-2.118;2023-02-13T04:28:05;3.38;;;1.65;;
29002;SDS011;16102;57.138;-2.118;2023-02-13T04:30:33;7.10;;;1.83;;
29002;SDS011;16102;57.138;-2.118;2023-02-13T04:33:00;5.05;;;1.10;;
29002;SDS011;16102;57.138;-2.118;2023-02-13T04:35:27;1.55;;;0.90;;
29002;SDS011;16102;57.138;-2.118;2023-02-13T04:37:53;3.53;;;1.30;;
29002;SDS011;16102;57.138;-2.118;2023-02-13T04:40:22;2.22;;;0.82;;
29002;SDS011;16102;57.138;-2.118;2023-02-13T04:42:49;2.65;;;1.65;;
29002;SDS011;16102;57.138;-2.118;2023-02-13T04:45:16;1.85;;;0.98;;
29002;SDS011;16102;57.138;-2.118;2023-02-13T04:47:53;5.70;;;1.58;;
29002;SDS011;16102;57.138;-2.118;2023-02-13T04:50:21;5.65;;;1.40;;
29002;SDS011;16102;57.138;-2.118;2023-02-13T04:52:52;2.50;;;1.00;;
29002;SDS011;16102;57.138;-2.118;2023-02-13T04:55:21;3.63;;;1.20;;
29002;SDS011;16102;57.138;-2.118;2023-02-13T04:57:52;3.47;;;1.23;;
29002;SDS011;16102;57.138;-2.118;2023-02-13T05:00:21;0.95;;;0.73;;
29002;SDS011;16102;57.138;-2.118;2023-02-13T05:02:49;2.85;;;1.00;;
29002;SDS011;16102;57.138;-2.118;2023-02-13T05:05:17;2.80;;;1.25;;
29002;SDS011;16102;57.138;-2.118;2023-02-13T05:07:44;1.80;;;0.68;;
29002;SDS011;16102;57.138;-2.118;2023-02-13T05:10:11;1.15;;;0.60;;
29002;SDS011;16102;57.138;-2.118;2023-02-13T05:12:39;1.85;;;1.08;;
29002;SDS011;16102;57.138;-2.118;2023-02-13T05:15:06;1.38;;;0.90;;
29002;SDS011;16102;57.138;-2.118;2023-02-13T05:17:33;2.92;;;1.50;;
29002;SDS011;16102;57.138;-2.118;2023-02-13T05:20:00;1.98;;;0.90;;
29002;SDS011;16102;57.138;-2.118;2023-02-13T05:22:27;1.42;;;0.80;;
29002;SDS011;16102;57.138;-2.118;2023-02-13T05:25:12;2.10;;;1.17;;
29002;SDS011;16102;57.138;-2.118;2023-02-13T05:27:39;2.92;;;0.90;;
29002;SDS011;16102;57.138;-2.118;2023-02-13T05:30:06;4.47;;;1.20;;
29002;SDS011;16102;57.138;-2.118;2023-02-13T05:32:34;1.05;;;0.65;;
29002;SDS011;16102;57.138;-2.118;2023-02-13T05:35:01;0.45;;;0.45;;
29002;SDS011;16102;57.138;-2.118;2023-02-13T05:37:29;7.28;;;1.05;;
29002;SDS011;16102;57.138;-2.118;2023-02-13T05:39:57;0.60;;;0.60;;
29002;SDS011;16102;57.138;-2.118;2023-02-13T05:42:24;1.23;;;1.00;;
29002;SDS011;16102;57.138;-2.118;2023-02-13T05:44:51;1.20;;;1.10;;
29002;SDS011;16102;57.138;-2.118;2023-02-13T05:47:18;0.80;;;0.60;;
29002;SDS011;16102;57.138;-2.118;2023-02-13T05:49:45;1.17;;;0.70;;
29002;SDS011;16102;57.138;-2.118;2023-02-13T05:52:11;0.93;;;0.80;;
29002;SDS011;16102;57.138;-2.118;2023-02-13T05:54:38;1.27;;;0.75;;
29002;SDS011;16102;57.138;-2.118;2023-02-13T05:57:05;1.05;;;0.80;;
29002;SDS011;16102;57.138;-2.118;2023-02-13T05:59:32;1.75;;;0.50;;
29002;SDS011;16102;57.138;-2.118;2023-02-13T06:01:59;0.70;;;0.63;;
29002;SDS011;16102;57.138;-2.118;2023-02-13T06:04:26;0.75;;;0.63;;
29002;SDS011;16102;57.138;-2.118;2023-02-13T06:06:53;4.15;;;0.70;;
29002;SDS011;16102;57.138;-2.118;2023-02-13T06:09:20;0.63;;;0.52;;
29002;SDS011;16102;57.138;-2.118;2023-02-13T06:11:47;0.52;;;0.50;;
29002;SDS011;16102;57.138;-2.118;2023-02-13T06:14:14;1.38;;;0.63;;
29002;SDS011;16102;57.138;-2.118;2023-02-13T06:16:41;1.73;;;0.65;;
29002;SDS011;16102;57.138;-2.118;2023-02-13T06:19:08;5.18;;;0.85;;
29002;SDS011;16102;57.138;-2.118;2023-02-13T06:21:35;2.45;;;1.20;;
29002;SDS011;16102;57.138;-2.118;2023-02-13T06:24:03;1.00;;;0.90;;
29002;SDS011;16102;57.138;-2.118;2023-02-13T06:26:31;1.90;;;0.85;;
29002;SDS011;16102;57.138;-2.118;2023-02-13T06:28:59;0.70;;;0.63;;
29002;SDS011;16102;57.138;-2.118;2023-02-13T06:31:26;0.50;;;0.50;;
29002;SDS011;16102;57.138;-2.118;2023-02-13T06:33:53;0.70;;;0.50;;
29002;SDS011;16102;57.138;-2.118;2023-02-13T06:36:20;1.42;;;0.70;;
29002;SDS011;16102;57.138;-2.118;2023-02-13T06:38:47;1.42;;;0.60;;
29002;SDS011;16102;57.138;-2.118;2023-02-13T06:41:14;1.13;;;0.50;;
29002;SDS011;16102;57.138;-2.118;2023-02-13T06:43:41;5.20;;;2.08;;
29002;SDS011;16102;57.138;-2.118;2023-02-13T06:46:08;0.95;;;0.68;;
29002;SDS011;16102;57.138;-2.118;2023-02-13T06:48:35;1.50;;;1.05;;
29002;SDS011;16102;57.138;-2.118;2023-02-13T06:51:02;3.63;;;1.38;;
29002;SDS011;16102;57.138;-2.118;2023-02-13T06:53:29;1.35;;;0.88;;
29002;SDS011;16102;57.138;-2.118;2023-02-13T06:55:56;0.98;;;0.85;;
29002;SDS011;16102;57.138;-2.118;2023-02-13T06:58:24;1.48;;;0.90;;
29002;SDS011;16102;57.138;-2.118;2023-02-13T07:00:52;1.27;;;1.17;;
29002;SDS011;16102;57.138;-2.118;2023-02-13T07:03:19;3.53;;;2.25;;
29002;SDS011;16102;57.138;-2.118;2023-02-13T07:05:46;4.90;;;2.45;;
29002;SDS011;16102;57.138;-2.118;2023-02-13T07:08:13;1.65;;;1.08;;
29002;SDS011;16102;57.138;-2.118;2023-02-13T07:10:40;1.58;;;1.00;;
29002;SDS011;16102;57.138;-2.118;2023-02-13T07:13:08;1.02;;;0.93;;
29002;SDS011;16102;57.138;-2.118;2023-02-13T07:15:35;2.13;;;0.95;;
29002;SDS011;16102;57.138;-2.118;2023-02-13T07:18:03;2.45;;;1.83;;
29002;SDS011;16102;57.138;-2.118;2023-02-13T07:20:31;2.67;;;1.83;;
29002;SDS011;16102;57.138;-2.118;2023-02-13T07:22:59;4.78;;;1.73;;
29002;SDS011;16102;57.138;-2.118;2023-02-13T07:25:28;4.05;;;2.70;;
29002;SDS011;16102;57.138;-2.118;2023-02-13T07:28:04;2.55;;;1.65;;
29002;SDS011;16102;57.138;-2.118;2023-02-13T07:30:33;2.45;;;2.25;;
29002;SDS011;16102;57.138;-2.118;2023-02-13T07:33:00;1.73;;;1.30;;
29002;SDS011;16102;57.138;-2.118;2023-02-13T07:35:28;6.65;;;3.78;;
29002;SDS011;16102;57.138;-2.118;2023-02-13T07:37:55;2.42;;;1.98;;
29002;SDS011;16102;57.138;-2.118;2023-02-13T07:40:22;3.15;;;2.28;;
29002;SDS011;16102;57.138;-2.118;2023-02-13T07:42:49;1.85;;;1.63;;
29002;SDS011;16102;57.138;-2.118;2023-02-13T07:45:16;6.80;;;2.67;;
29002;SDS011;16102;57.138;-2.118;2023-02-13T07:47:43;2.08;;;1.77;;
29002;SDS011;16102;57.138;-2.118;2023-02-13T07:50:10;5.60;;;2.97;;
29002;SDS011;16102;57.138;-2.118;2023-02-13T07:52:37;9.57;;;4.38;;
29002;SDS011;16102;57.138;-2.118;2023-02-13T07:55:05;4.30;;;3.25;;
29002;SDS011;16102;57.138;-2.118;2023-02-13T07:57:32;2.85;;;2.30;;
29002;SDS011;16102;57.138;-2.118;2023-02-13T07:59:59;2.85;;;1.77;;
29002;SDS011;16102;57.138;-2.118;2023-02-13T08:02:26;1.60;;;1.20;;
29002;SDS011;16102;57.138;-2.118;2023-02-13T08:04:53;3.03;;;1.95;;
29002;SDS011;16102;57.138;-2.118;2023-02-13T08:07:20;3.58;;;2.92;;
29002;SDS011;16102;57.138;-2.118;2023-02-13T08:09:47;2.75;;;2.10;;
29002;SDS011;16102;57.138;-2.118;2023-02-13T08:12:34;8.82;;;3.97;;
29002;SDS011;16102;57.138;-2.118;2023-02-13T08:15:02;3.53;;;2.70;;
29002;SDS011;16102;57.138;-2.118;2023-02-13T08:17:29;6.80;;;4.60;;
29002;SDS011;16102;57.138;-2.118;2023-02-13T08:19:56;4.50;;;2.80;;
29002;SDS011;16102;57.138;-2.118;2023-02-13T08:22:23;10.20;;;5.07;;
29002;SDS011;16102;57.138;-2.118;2023-02-13T08:24:50;6.40;;;4.25;;
29002;SDS011;16102;57.138;-2.118;2023-02-13T08:27:18;5.20;;;4.00;;
29002;SDS011;16102;57.138;-2.118;2023-02-13T08:29:45;6.35;;;4.13;;
29002;SDS011;16102;57.138;-2.118;2023-02-13T08:32:14;5.57;;;3.58;;
29002;SDS011;16102;57.138;-2.118;2023-02-13T08:34:41;15.15;;;7.57;;
29002;SDS011;16102;57.138;-2.118;2023-02-13T08:37:08;7.03;;;5.18;;
29002;SDS011;16102;57.138;-2.118;2023-02-13T08:39:34;7.80;;;5.03;;
29002;SDS011;16102;57.138;-2.118;2023-02-13T08:42:01;13.80;;;8.43;;
29002;SDS011;16102;57.138;-2.118;2023-02-13T08:44:29;12.68;;;9.13;;
29002;SDS011;16102;57.138;-2.118;2023-02-13T08:46:56;8.75;;;6.22;;
29002;SDS011;16102;57.138;-2.118;2023-02-13T08:49:23;9.65;;;6.38;;
29002;SDS011;16102;57.138;-2.118;2023-02-13T08:51:50;16.50;;;10.32;;
29002;SDS011;16102;57.138;-2.118;2023-02-13T08:54:17;16.88;;;10.00;;
29002;SDS011;16102;57.138;-2.118;2023-02-13T08:56:44;10.80;;;7.45;;
29002;SDS011;16102;57.138;-2.118;2023-02-13T08:59:11;14.85;;;10.07;;
29002;SDS011;16102;57.138;-2.118;2023-02-13T09:01:38;11.88;;;8.57;;
29002;SDS011;16102;57.138;-2.118;2023-02-13T09:04:05;13.50;;;8.90;;
29002;SDS011;16102;57.138;-2.118;2023-02-13T09:06:32;15.20;;;8.85;;
29002;SDS011;16102;57.138;-2.118;2023-02-13T09:08:59;11.60;;;7.53;;
29002;SDS011;16102;57.138;-2.118;2023-02-13T09:11:26;16.90;;;10.82;;
29002;SDS011;16102;57.138;-2.118;2023-02-13T09:13:53;10.10;;;7.18;;
29002;SDS011;16102;57.138;-2.118;2023-02-13T09:16:20;12.63;;;9.50;;
29002;SDS011;16102;57.138;-2.118;2023-02-13T09:18:48;11.15;;;6.75;;
29002;SDS011;16102;57.138;-2.118;2023-02-13T09:21:17;13.25;;;9.52;;
29002;SDS011;16102;57.138;-2.118;2023-02-13T09:23:45;16.50;;;11.05;;
29002;SDS011;16102;57.138;-2.118;2023-02-13T09:26:13;15.68;;;11.30;;
29002;SDS011;16102;57.138;-2.118;2023-02-13T09:28:41;11.02;;;7.72;;
29002;SDS011;16102;57.138;-2.118;2023-02-13T09:31:16;13.75;;;9.55;;
29002;SDS011;16102;57.138;-2.118;2023-02-13T09:33:46;11.23;;;8.73;;
29002;SDS011;16102;57.138;-2.118;2023-02-13T09:36:15;17.92;;;12.70;;
29002;SDS011;16102;57.138;-2.118;2023-02-13T09:38:47;20.33;;;11.93;;
29002;SDS011;16102;57.138;-2.118;2023-02-13T09:43:52;17.15;;;10.85;;
29002;SDS011;16102;57.138;-2.118;2023-02-13T09:46:59;15.30;;;9.57;;
29002;SDS011;16102;57.138;-2.118;2023-02-13T09:49:43;11.65;;;8.35;;
29002;SDS011;16102;57.138;-2.118;2023-02-13T09:52:19;17.85;;;13.40;;
29002;SDS011;16102;57.138;-2.118;2023-02-13T09:54:47;11.13;;;8.98;;
29002;SDS011;16102;57.138;-2.118;2023-02-13T09:57:16;12.10;;;9.15;;
29002;SDS011;16102;57.138;-2.118;2023-02-13T10:08:25;18.70;;;11.50;;
29002;SDS011;16102;57.138;-2.118;2023-02-13T10:16:24;16.75;;;9.93;;
29002;SDS011;16102;57.138;-2.118;2023-02-13T10:21:59;8.88;;;7.57;;
29002;SDS011;16102;57.138;-2.118;2023-02-13T10:27:21;14.30;;;11.07;;
29002;SDS011;16102;57.138;-2.118;2023-02-13T10:35:57;14.25;;;9.27;;
29002;SDS011;16102;57.138;-2.118;2023-02-13T10:38:31;11.70;;;9.57;;
29002;SDS011;16102;57.138;-2.118;2023-02-13T10:46:24;11.32;;;8.43;;
29002;SDS011;16102;57.138;-2.118;2023-02-13T10:49:31;13.30;;;9.27;;
29002;SDS011;16102;57.138;-2.118;2023-02-13T10:52:23;19.70;;;11.18;;
29002;SDS011;16102;57.138;-2.118;2023-02-13T11:03:47;11.45;;;9.52;;
29002;SDS011;16102;57.138;-2.118;2023-02-13T11:06:26;17.70;;;11.52;;
29002;SDS011;16102;57.138;-2.118;2023-02-13T11:08:55;15.15;;;12.02;;
29002;SDS011;16102;57.138;-2.118;2023-02-13T11:11:29;9.32;;;7.95;;
29002;SDS011;16102;57.138;-2.118;2023-02-13T11:17:00;13.68;;;10.63;;
29002;SDS011;16102;57.138;-2.118;2023-02-13T11:19:32;11.80;;;8.73;;
29002;SDS011;16102;57.138;-2.118;2023-02-13T11:22:12;10.25;;;8.43;;
29002;SDS011;16102;57.138;-2.118;2023-02-13T11:24:48;14.23;;;9.32;;
29002;SDS011;16102;57.138;-2.118;2023-02-13T11:27:22;10.25;;;8.57;;
29002;SDS011;16102;57.138;-2.118;2023-02-13T11:30:00;14.57;;;10.15;;
29002;SDS011;16102;57.138;-2.118;2023-02-13T11:32:31;9.13;;;6.70;;
29002;SDS011;16102;57.138;-2.118;2023-02-13T11:35:16;11.52;;;9.15;;
29002;SDS011;16102;57.138;-2.118;2023-02-13T11:38:11;11.38;;;9.27;;
29002;SDS011;16102;57.138;-2.118;2023-02-13T11:40:43;10.43;;;8.80;;
29002;SDS011;16102;57.138;-2.118;2023-02-13T11:43:36;11.27;;;9.23;;
29002;SDS011;16102;57.138;-2.118;2023-02-13T11:46:03;11.38;;;8.02;;
29002;SDS011;16102;57.138;-2.118;2023-02-13T11:48:34;9.38;;;8.38;;
29002;SDS011;16102;57.138;-2.118;2023-02-13T11:51:01;13.38;;;11.00;;
29002;SDS011;16102;57.138;-2.118;2023-02-13T11:53:37;13.50;;;10.00;;
29002;SDS011;16102;57.138;-2.118;2023-02-13T11:58:40;14.38;;;9.95;;
29002;SDS011;16102;57.138;-2.118;2023-02-13T12:04:03;7.88;;;7.07;;
29002;SDS011;16102;57.138;-2.118;2023-02-13T12:06:33;12.43;;;8.83;;
29002;SDS011;16102;57.138;-2.118;2023-02-13T12:09:11;10.52;;;9.38;;
29002;SDS011;16102;57.138;-2.118;2023-02-13T12:11:53;12.13;;;9.52;;
29002;SDS011;16102;57.138;-2.118;2023-02-13T12:14:25;12.98;;;10.48;;
29002;SDS011;16102;57.138;-2.118;2023-02-13T12:16:59;7.95;;;6.82;;
29002;SDS011;16102;57.138;-2.118;2023-02-13T12:19:34;13.18;;;9.93;;
29002;SDS011;16102;57.138;-2.118;2023-02-13T12:27:51;10.20;;;8.70;;
29002;SDS011;16102;57.138;-2.118;2023-02-13T12:36:23;11.52;;;8.15;;
29002;SDS011;16102;57.138;-2.118;2023-02-13T12:41:21;9.95;;;7.25;;
29002;SDS011;16102;57.138;-2.118;2023-02-13T12:49:10;10.32;;;7.35;;
29002;SDS011;16102;57.138;-2.118;2023-02-13T12:57:52;13.30;;;9.52;;
29002;SDS011;16102;57.138;-2.118;2023-02-13T13:09:00;8.60;;;7.35;;
29002;SDS011;16102;57.138;-2.118;2023-02-13T13:28:11;9.80;;;7.47;;
29002;SDS011;16102;57.138;-2.118;2023-02-13T13:30:42;11.73;;;9.30;;
29002;SDS011;16102;57.138;-2.118;2023-02-13T13:36:04;10.02;;;8.65;;
29002;SDS011;16102;57.138;-2.118;2023-02-13T13:41:42;9.10;;;7.60;;
29002;SDS011;16102;57.138;-2.118;2023-02-13T13:44:41;12.32;;;9.82;;
29002;SDS011;16102;57.138;-2.118;2023-02-13T13:48:15;9.00;;;7.63;;
29002;SDS011;16102;57.138;-2.118;2023-02-13T13:50:28;14.32;;;10.95;;
29002;SDS011;16102;57.138;-2.118;2023-02-13T13:58:41;11.07;;;9.75;;
29002;SDS011;16102;57.138;-2.118;2023-02-13T14:03:41;6.95;;;6.22;;
29002;SDS011;16102;57.138;-2.118;2023-02-13T14:11:54;9.73;;;7.05;;
29002;SDS011;16102;57.138;-2.118;2023-02-13T14:16:58;8.75;;;7.85;;
29002;SDS011;16102;57.138;-2.118;2023-02-13T14:19:39;11.07;;;8.85;;
29002;SDS011;16102;57.138;-2.118;2023-02-13T14:24:51;9.00;;;7.78;;
29002;SDS011;16102;57.138;-2.118;2023-02-13T14:27:23;11.15;;;8.80;;
29002;SDS011;16102;57.138;-2.118;2023-02-13T14:29:55;6.03;;;5.07;;
29002;SDS011;16102;57.138;-2.118;2023-02-13T14:32:35;12.75;;;8.48;;
29002;SDS011;16102;57.138;-2.118;2023-02-13T14:38:03;8.57;;;7.68;;
29002;SDS011;16102;57.138;-2.118;2023-02-13T14:40:57;7.75;;;5.97;;
29002;SDS011;16102;57.138;-2.118;2023-02-13T14:48:42;10.27;;;9.18;;
29002;SDS011;16102;57.138;-2.118;2023-02-13T14:51:32;11.45;;;7.82;;
29002;SDS011;16102;57.138;-2.118;2023-02-13T14:54:18;14.57;;;11.35;;
29002;SDS011;16102;57.138;-2.118;2023-02-13T14:59:33;8.32;;;6.43;;
29002;SDS011;16102;57.138;-2.118;2023-02-13T15:04:57;5.10;;;4.30;;
29002;SDS011;16102;57.138;-2.118;2023-02-13T15:07:30;7.63;;;4.57;;
29002;SDS011;16102;57.138;-2.118;2023-02-13T15:10:04;5.60;;;4.53;;
29002;SDS011;16102;57.138;-2.118;2023-02-13T15:12:56;7.85;;;6.10;;
29002;SDS011;16102;57.138;-2.118;2023-02-13T15:15:26;13.80;;;10.50;;
29002;SDS011;16102;57.138;-2.118;2023-02-13T15:17:59;9.88;;;6.68;;
29002;SDS011;16102;57.138;-2.118;2023-02-13T15:20:29;10.43;;;8.60;;
29002;SDS011;16102;57.138;-2.118;2023-02-13T15:23:00;13.88;;;11.05;;
29002;SDS011;16102;57.138;-2.118;2023-02-13T15:25:32;13.23;;;10.68;;
29002;SDS011;16102;57.138;-2.118;2023-02-13T15:28:06;10.88;;;9.07;;
29002;SDS011;16102;57.138;-2.118;2023-02-13T15:30:50;7.40;;;6.13;;
29002;SDS011;16102;57.138;-2.118;2023-02-13T15:33:24;7.43;;;6.25;;
29002;SDS011;16102;57.138;-2.118;2023-02-13T15:35:57;15.55;;;10.73;;
29002;SDS011;16102;57.138;-2.118;2023-02-13T15:40:56;10.32;;;8.10;;
29002;SDS011;16102;57.138;-2.118;2023-02-13T15:43:43;9.50;;;6.85;;
29002;SDS011;16102;57.138;-2.118;2023-02-13T15:48:59;9.73;;;8.23;;
29002;SDS011;16102;57.138;-2.118;2023-02-13T15:51:31;10.60;;;8.75;;
29002;SDS011;16102;57.138;-2.118;2023-02-13T15:54:02;10.35;;;8.30;;
29002;SDS011;16102;57.138;-2.118;2023-02-13T15:56:33;10.07;;;7.68;;
29002;SDS011;16102;57.138;-2.118;2023-02-13T15:59:03;17.90;;;12.40;;
29002;SDS011;16102;57.138;-2.118;2023-02-13T16:01:30;14.98;;;10.25;;
29002;SDS011;16102;57.138;-2.118;2023-02-13T16:04:01;10.52;;;6.90;;
29002;SDS011;16102;57.138;-2.118;2023-02-13T16:06:31;11.70;;;7.78;;
29002;SDS011;16102;57.138;-2.118;2023-02-13T16:09:04;9.25;;;7.22;;
29002;SDS011;16102;57.138;-2.118;2023-02-13T16:11:33;11.13;;;8.30;;
29002;SDS011;16102;57.138;-2.118;2023-02-13T16:16:55;12.15;;;7.53;;
29002;SDS011;16102;57.138;-2.118;2023-02-13T16:22:13;17.17;;;11.43;;
29002;SDS011;16102;57.138;-2.118;2023-02-13T16:24:52;10.25;;;7.72;;
29002;SDS011;16102;57.138;-2.118;2023-02-13T16:27:29;10.77;;;6.30;;
29002;SDS011;16102;57.138;-2.118;2023-02-13T16:29:58;10.73;;;7.22;;
29002;SDS011;16102;57.138;-2.118;2023-02-13T16:32:33;16.08;;;11.82;;
29002;SDS011;16102;57.138;-2.118;2023-02-13T16:37:51;8.82;;;6.82;;
29002;SDS011;16102;57.138;-2.118;2023-02-13T16:40:40;12.93;;;8.52;;
29002;SDS011;16102;57.138;-2.118;2023-02-13T16:43:52;10.90;;;8.23;;
29002;SDS011;16102;57.138;-2.118;2023-02-13T17:07:36;13.23;;;9.30;;
29002;SDS011;16102;57.138;-2.118;2023-02-13T17:12:57;20.00;;;12.98;;
29002;SDS011;16102;57.138;-2.118;2023-02-13T17:15:28;13.55;;;9.07;;
29002;SDS011;16102;57.138;-2.118;2023-02-13T17:17:57;15.05;;;9.60;;
29002;SDS011;16102;57.138;-2.118;2023-02-13T17:20:34;14.55;;;9.23;;
29002;SDS011;16102;57.138;-2.118;2023-02-13T17:23:04;15.75;;;10.20;;
29002;SDS011;16102;57.138;-2.118;2023-02-13T17:25:34;22.77;;;12.80;;
29002;SDS011;16102;57.138;-2.118;2023-02-13T17:28:09;26.05;;;15.88;;
29002;SDS011;16102;57.138;-2.118;2023-02-13T17:30:38;31.00;;;18.47;;
29002;SDS011;16102;57.138;-2.118;2023-02-13T17:33:09;15.85;;;11.13;;
29002;SDS011;16102;57.138;-2.118;2023-02-13T17:35:39;20.73;;;13.73;;
29002;SDS011;16102;57.138;-2.118;2023-02-13T17:38:06;24.50;;;15.60;;
29002;SDS011;16102;57.138;-2.118;2023-02-13T17:40:34;22.88;;;13.75;;
29002;SDS011;16102;57.138;-2.118;2023-02-13T17:43:02;18.70;;;12.18;;
29002;SDS011;16102;57.138;-2.118;2023-02-13T17:45:30;11.52;;;8.93;;
29002;SDS011;16102;57.138;-2.118;2023-02-13T17:47:58;15.10;;;10.40;;
29002;SDS011;16102;57.138;-2.118;2023-02-13T17:50:26;16.90;;;11.52;;
29002;SDS011;16102;57.138;-2.118;2023-02-13T17:52:54;20.25;;;12.52;;
29002;SDS011;16102;57.138;-2.118;2023-02-13T17:55:26;18.23;;;10.43;;
29002;SDS011;16102;57.138;-2.118;2023-02-13T17:57:55;23.85;;;13.43;;
29002;SDS011;16102;57.138;-2.118;2023-02-13T18:00:24;12.63;;;9.10;;
29002;SDS011;16102;57.138;-2.118;2023-02-13T18:02:54;21.38;;;12.88;;
29002;SDS011;16102;57.138;-2.118;2023-02-13T18:05:22;16.17;;;10.05;;
29002;SDS011;16102;57.138;-2.118;2023-02-13T18:07:49;21.20;;;13.98;;
29002;SDS011;16102;57.138;-2.118;2023-02-13T18:10:23;28.77;;;16.58;;
29002;SDS011;16102;57.138;-2.118;2023-02-13T18:12:55;29.17;;;19.70;;
29002;SDS011;16102;57.138;-2.118;2023-02-13T18:15:23;33.55;;;20.38;;
29002;SDS011;16102;57.138;-2.118;2023-02-13T18:17:50;26.63;;;16.35;;
29002;SDS011;16102;57.138;-2.118;2023-02-13T18:20:18;19.00;;;11.32;;
29002;SDS011;16102;57.138;-2.118;2023-02-13T18:22:46;23.75;;;14.68;;
29002;SDS011;16102;57.138;-2.118;2023-02-13T18:25:17;18.73;;;11.15;;
29002;SDS011;16102;57.138;-2.118;2023-02-13T18:27:45;23.95;;;15.45;;
29002;SDS011;16102;57.138;-2.118;2023-02-13T18:30:13;26.10;;;17.10;;
29002;SDS011;16102;57.138;-2.118;2023-02-13T18:32:43;23.40;;;15.73;;
29002;SDS011;16102;57.138;-2.118;2023-02-13T18:35:11;29.80;;;18.63;;
29002;SDS011;16102;57.138;-2.118;2023-02-13T18:37:38;30.48;;;16.80;;
29002;SDS011;16102;57.138;-2.118;2023-02-13T18:40:07;26.17;;;17.25;;
29002;SDS011;16102;57.138;-2.118;2023-02-13T18:42:35;30.08;;;17.35;;
29002;SDS011;16102;57.138;-2.118;2023-02-13T18:45:04;27.33;;;18.77;;
29002;SDS011;16102;57.138;-2.118;2023-02-13T18:47:31;24.98;;;14.90;;